Terminal Aerodrome Forecast
Issued by NWS Spokane, WA

Home | Current Version | Previous Version | Text Only | Print | Product List | Glossary On
Versions: 1 2 3 4 5 6 7 8 9 10 11 12 13 14 15 16 17
000
FTUS46 KOTX 250537
TAFEAT
TAF
KEAT 250537Z 2506/2606 33005KT P6SM BKN200 WS020/27035KT
     FM251400 31014G23KT P6SM VCSH SCT050 BKN100
     FM251800 30020G28KT 4SM -SN OVC035
     FM260100 30015G22KT P6SM SCT030 SCT200
     FM260300 21011KT P6SM FEW200=

USA.gov is the U.S. government's official web portal to all federal, state and local government web resources and services.